createdAt,value
2022-08-28T00:02:22.285Z,31.55
2022-08-28T00:04:51.078Z,21.15
2022-08-28T00:07:19.754Z,26.17
2022-08-28T00:09:48.315Z,31.83
2022-08-28T00:12:18.196Z,28.02
2022-08-28T00:14:46.774Z,25.13
2022-08-28T00:17:15.287Z,21.38
2022-08-28T00:19:43.771Z,22.67
2022-08-28T00:22:12.346Z,25.05
2022-08-28T00:24:42.994Z,24.50
2022-08-28T00:27:29.168Z,25.65
2022-08-28T00:29:59.421Z,26.13
2022-08-28T00:32:28.533Z,28.13
2022-08-28T00:34:58.035Z,30.63
2022-08-28T00:37:26.632Z,29.73
2022-08-28T00:39:55.262Z,33.13
2022-08-28T00:42:24.952Z,30.17
2022-08-28T00:44:53.459Z,31.17
2022-08-28T00:47:24.641Z,33.90
2022-08-28T00:49:56.815Z,37.15
2022-08-28T00:52:27.075Z,37.08
2022-08-28T00:54:59.025Z,45.30
2022-08-28T00:57:32.423Z,44.42
2022-08-28T01:00:01.752Z,43.97
2022-08-28T01:02:33.962Z,46.47
2022-08-28T01:05:02.996Z,48.15
2022-08-28T01:07:32.231Z,48.72
2022-08-28T01:10:01.170Z,53.65
2022-08-28T01:12:32.013Z,57.80
2022-08-28T01:15:03.549Z,52.83
2022-08-28T01:17:36.412Z,51.72
2022-08-28T01:20:14.248Z,52.90
2022-08-28T01:22:50.144Z,57.40
2022-08-28T01:25:22.355Z,67.15
2022-08-28T01:27:51.781Z,54.72
2022-08-28T01:30:22.083Z,56.83
2022-08-28T01:32:53.846Z,48.67
2022-08-28T01:35:25.835Z,60.63
2022-08-28T01:37:55.931Z,57.95
2022-08-28T01:40:30.232Z,57.38
2022-08-28T01:43:09.279Z,53.95
2022-08-28T01:45:38.133Z,56.15
2022-08-28T01:48:07.625Z,78.78
2022-08-28T01:50:36.987Z,83.65
2022-08-28T01:53:06.791Z,72.47
2022-08-28T01:55:42.817Z,74.88
2022-08-28T01:58:12.862Z,84.55
2022-08-28T02:00:42.126Z,88.82
2022-08-28T02:03:12.930Z,72.13
2022-08-28T02:05:41.981Z,64.40
2022-08-28T02:08:10.968Z,54.95
2022-08-28T02:10:43.731Z,57.67
2022-08-28T02:13:13.274Z,54.92
2022-08-28T02:15:43.534Z,55.58
2022-08-28T02:18:12.268Z,59.65
2022-08-28T02:20:41.928Z,57.92
2022-08-28T02:23:10.746Z,58.80
2022-08-28T02:25:39.606Z,56.17
2022-08-28T02:28:09.955Z,55.53
2022-08-28T02:30:39.027Z,62.75
2022-08-28T02:33:07.603Z,60.35
2022-08-28T02:35:36.243Z,68.95
2022-08-28T02:38:04.914Z,61.00
2022-08-28T02:40:33.891Z,59.83
2022-08-28T02:43:02.413Z,61.55
2022-08-28T02:45:32.904Z,64.50
2022-08-28T02:48:02.134Z,61.83
2022-08-28T02:50:31.198Z,60.13
2022-08-28T02:52:59.853Z,61.72
2022-08-28T02:55:31.354Z,74.10
2022-08-28T02:58:02.499Z,61.60
2022-08-28T03:00:32.449Z,68.88
2022-08-28T03:03:00.952Z,64.18
2022-08-28T03:05:29.458Z,61.13
2022-08-28T03:07:57.903Z,67.60
2022-08-28T03:10:26.335Z,70.28
2022-08-28T03:12:54.790Z,69.10
2022-08-28T03:15:23.543Z,71.18
2022-08-28T03:17:53.380Z,80.47
2022-08-28T03:20:21.983Z,80.43
2022-08-28T03:23:07.849Z,74.72
2022-08-28T03:25:36.276Z,75.72
2022-08-28T03:28:05.014Z,67.28
2022-08-28T03:30:33.581Z,71.10
2022-08-28T03:33:03.523Z,69.40
2022-08-28T03:35:32.026Z,63.67
2022-08-28T03:38:00.542Z,65.32
2022-08-28T03:40:28.999Z,62.70
2022-08-28T03:42:57.643Z,65.95
2022-08-28T03:45:27.933Z,61.28
2022-08-28T03:47:57.033Z,59.38
2022-08-28T03:50:27.676Z,57.08
2022-08-28T03:52:59.390Z,60.00
2022-08-28T03:55:28.986Z,60.38
2022-08-28T03:57:57.486Z,56.55
2022-08-28T04:00:27.176Z,60.72
2022-08-28T04:02:55.935Z,58.78
2022-08-28T04:05:25.064Z,53.60
2022-08-28T04:07:54.883Z,58.47
2022-08-28T04:10:23.427Z,57.85
2022-08-28T04:12:51.863Z,54.80
2022-08-28T04:15:20.413Z,54.63
2022-08-28T04:17:48.875Z,48.60
2022-08-28T04:20:17.500Z,52.70
2022-08-28T04:22:45.966Z,47.13
2022-08-28T04:25:16.012Z,50.08
2022-08-28T04:27:44.479Z,46.92
2022-08-28T04:30:13.672Z,46.05
2022-08-28T04:32:42.327Z,44.22
2022-08-28T04:35:13.126Z,45.63
2022-08-28T04:37:43.748Z,44.15
2022-08-28T04:40:15.992Z,42.13
2022-08-28T04:42:47.554Z,42.45
2022-08-28T04:45:17.089Z,43.90
2022-08-28T04:47:45.528Z,41.55
2022-08-28T04:50:14.028Z,41.78
2022-08-28T04:52:43.616Z,42.65
2022-08-28T04:55:12.088Z,37.53
2022-08-28T04:57:40.539Z,41.78
2022-08-28T05:00:12.450Z,39.70
2022-08-28T05:02:40.934Z,41.53
2022-08-28T05:05:10.151Z,39.67
2022-08-28T05:07:38.605Z,43.50
2022-08-28T05:10:07.797Z,41.47
2022-08-28T05:12:37.236Z,40.83
2022-08-28T05:15:06.715Z,43.15
2022-08-28T05:17:36.610Z,38.38
2022-08-28T05:20:06.438Z,37.70
2022-08-28T05:22:34.921Z,41.55
2022-08-28T05:25:03.398Z,38.10
2022-08-28T05:27:31.976Z,31.30
2022-08-28T05:30:02.090Z,34.13
2022-08-28T05:32:32.288Z,32.05
2022-08-28T05:35:02.155Z,35.67
2022-08-28T05:37:31.383Z,35.22
2022-08-28T05:40:00.286Z,33.03
2022-08-28T05:42:31.018Z,33.33
2022-08-28T05:45:00.453Z,33.05
2022-08-28T05:47:32.639Z,33.45
2022-08-28T05:50:03.269Z,40.58
2022-08-28T05:52:31.945Z,42.05
2022-08-28T05:55:00.690Z,43.45
2022-08-28T05:57:30.456Z,40.83
2022-08-28T05:59:58.943Z,46.95
2022-08-28T06:02:27.870Z,45.72
2022-08-28T06:04:57.858Z,42.78
2022-08-28T06:07:27.762Z,44.35
2022-08-28T06:09:56.340Z,45.88
2022-08-28T06:12:24.806Z,49.80
2022-08-28T06:14:53.291Z,49.28
2022-08-28T06:17:24.051Z,49.75
2022-08-28T06:19:52.560Z,53.10
2022-08-28T06:22:21.103Z,49.05
2022-08-28T06:24:50.917Z,43.97
2022-08-28T06:27:19.501Z,41.95
2022-08-28T06:29:47.975Z,44.15
2022-08-28T06:32:16.613Z,39.83
2022-08-28T06:34:45.147Z,41.35
2022-08-28T06:37:13.590Z,35.72
2022-08-28T06:39:42.053Z,31.98
2022-08-28T06:42:12.035Z,32.30
2022-08-28T06:44:40.576Z,32.33
2022-08-28T06:47:11.254Z,34.60
2022-08-28T06:49:39.758Z,40.45
2022-08-28T06:52:08.338Z,37.42
2022-08-28T06:54:36.833Z,37.88
2022-08-28T06:57:06.907Z,35.92
2022-08-28T06:59:36.896Z,35.10
2022-08-28T07:02:06.514Z,37.78
2022-08-28T07:04:35.095Z,35.22
2022-08-28T07:07:03.571Z,39.10
2022-08-28T07:09:32.100Z,38.17
2022-08-28T07:12:01.023Z,39.00
2022-08-28T07:14:29.457Z,40.90
2022-08-28T07:16:59.277Z,45.45
2022-08-28T07:19:28.571Z,40.25
2022-08-28T07:21:57.017Z,39.10
2022-08-28T07:24:25.487Z,39.97
2022-08-28T07:26:54.467Z,37.40
2022-08-28T07:29:23.437Z,38.00
2022-08-28T07:31:53.766Z,37.88
2022-08-28T07:34:27.223Z,38.85
2022-08-28T07:36:58.259Z,31.10
2022-08-28T07:39:26.760Z,34.75
2022-08-28T07:41:55.249Z,32.28
2022-08-28T07:44:41.133Z,29.88
2022-08-28T07:47:11.707Z,36.25
2022-08-28T07:49:42.019Z,33.78
2022-08-28T07:52:13.783Z,37.38
2022-08-28T07:54:43.841Z,35.00
2022-08-28T07:57:12.427Z,35.33
2022-08-28T07:59:42.982Z,32.95
2022-08-28T08:02:11.850Z,30.58
2022-08-28T08:04:41.818Z,28.60
2022-08-28T08:07:12.974Z,24.75
2022-08-28T08:09:43.637Z,29.35
2022-08-28T08:12:13.718Z,26.58
2022-08-28T08:14:43.602Z,26.77
2022-08-28T08:17:13.179Z,25.77
2022-08-28T08:19:43.034Z,28.75
2022-08-28T08:22:11.529Z,28.25
2022-08-28T08:24:39.983Z,25.88
2022-08-28T08:27:08.474Z,29.10
2022-08-28T08:29:38.763Z,31.23
2022-08-28T08:32:10.487Z,23.67
2022-08-28T08:34:40.803Z,25.02
2022-08-28T08:37:12.828Z,19.17
2022-08-28T08:39:43.180Z,18.92
2022-08-28T08:42:22.798Z,19.90
2022-08-28T08:44:53.541Z,17.85
2022-08-28T08:47:27.688Z,19.50
2022-08-28T08:49:58.955Z,18.40
2022-08-28T08:52:36.417Z,18.17
2022-08-28T08:55:25.253Z,19.40
2022-08-28T08:58:00.128Z,16.08
2022-08-28T09:00:30.007Z,21.25
2022-08-28T09:03:05.895Z,17.73
2022-08-28T09:05:50.204Z,19.60
2022-08-28T09:08:35.326Z,19.92
2022-08-28T09:11:12.555Z,17.02
2022-08-28T09:13:50.582Z,15.90
2022-08-28T09:16:26.467Z,14.93
2022-08-28T09:18:57.247Z,17.58
2022-08-28T09:21:29.389Z,20.25
2022-08-28T09:24:05.499Z,18.85
2022-08-28T09:26:34.783Z,17.63
2022-08-28T09:29:07.228Z,15.85
2022-08-28T09:31:38.484Z,14.52
2022-08-28T09:34:38.095Z,15.55
2022-08-28T09:37:09.753Z,15.93
2022-08-28T09:39:48.766Z,17.15
2022-08-28T09:42:40.342Z,16.65
2022-08-28T09:45:18.720Z,17.95
2022-08-28T09:47:50.065Z,15.68
2022-08-28T09:50:32.113Z,16.83
2022-08-28T09:53:15.366Z,16.50
2022-08-28T09:55:56.574Z,16.55
2022-08-28T09:58:28.328Z,16.88
2022-08-28T10:01:02.345Z,15.48
2022-08-28T10:03:39.597Z,21.00
2022-08-28T10:06:15.259Z,18.73
2022-08-28T10:08:59.416Z,16.90
2022-08-28T10:11:38.069Z,15.80
2022-08-28T10:14:19.427Z,16.27
2022-08-28T10:16:55.481Z,15.25
2022-08-28T10:19:36.782Z,16.88
2022-08-28T10:22:18.285Z,16.48
2022-08-28T10:25:20.618Z,16.33
2022-08-28T10:28:05.485Z,17.73
2022-08-28T10:30:39.441Z,17.88
2022-08-28T10:33:23.951Z,14.90
2022-08-28T10:35:57.315Z,23.13
2022-08-28T10:38:37.211Z,15.65
2022-08-28T10:41:11.235Z,15.75
2022-08-28T10:43:48.019Z,19.58
2022-08-28T10:46:23.143Z,15.00
2022-08-28T10:49:01.669Z,15.68
2022-08-28T10:51:39.439Z,14.65
2022-08-28T10:54:22.955Z,14.68
2022-08-28T10:56:56.027Z,15.93
2022-08-28T10:59:27.576Z,15.68
2022-08-28T11:01:56.655Z,15.10
2022-08-28T11:04:29.312Z,15.35
2022-08-28T11:07:03.685Z,13.88
2022-08-28T11:09:36.598Z,16.13
2022-08-28T11:12:09.780Z,14.90
2022-08-28T11:14:48.391Z,14.48
2022-08-28T11:17:40.250Z,16.38
2022-08-28T11:20:17.077Z,16.00
2022-08-28T11:22:48.124Z,15.05
2022-08-28T11:25:26.340Z,14.65
2022-08-28T11:28:17.507Z,13.80
2022-08-28T11:30:49.253Z,14.15
2022-08-28T11:33:39.976Z,12.98
2022-08-28T11:36:12.150Z,14.10
2022-08-28T11:39:21.541Z,15.23
2022-08-28T11:42:32.227Z,15.32
2022-08-28T11:45:01.389Z,15.50
2022-08-28T11:47:48.777Z,13.52
2022-08-28T11:50:25.314Z,17.35
2022-08-28T11:53:24.041Z,14.07
2022-08-28T11:56:31.140Z,13.13
2022-08-28T11:59:11.034Z,14.73
2022-08-28T12:01:40.591Z,13.07
2022-08-28T12:04:13.419Z,17.30
2022-08-28T12:06:55.536Z,14.45
2022-08-28T12:09:39.753Z,14.02
2022-08-28T12:12:13.959Z,13.85
2022-08-28T12:15:07.750Z,14.13
2022-08-28T12:17:58.912Z,13.63
2022-08-28T12:20:42.366Z,13.18
2022-08-28T12:23:37.287Z,14.18
2022-08-28T12:26:08.821Z,15.63
2022-08-28T12:28:45.791Z,15.57
2022-08-28T12:32:01.777Z,16.23
2022-08-28T12:34:42.493Z,16.77
2022-08-28T12:37:47.559Z,15.18
2022-08-28T12:40:23.330Z,16.65
2022-08-28T12:42:55.858Z,17.33
2022-08-28T12:45:29.006Z,16.63
2022-08-28T12:48:02.057Z,14.05
2022-08-28T12:50:34.162Z,15.20
2022-08-28T12:53:06.897Z,13.10
2022-08-28T12:55:35.858Z,20.42
2022-08-28T12:58:04.552Z,13.00
2022-08-28T13:00:53.529Z,12.35
2022-08-28T13:03:22.657Z,11.32
2022-08-28T13:05:58.751Z,11.05
2022-08-28T13:08:28.939Z,11.40
2022-08-28T13:10:58.690Z,10.05
2022-08-28T13:13:35.392Z,10.20
2022-08-28T13:16:06.024Z,10.27
2022-08-28T13:18:49.801Z,12.55
2022-08-28T13:21:34.957Z,10.60
2022-08-28T13:24:27.442Z,9.98
2022-08-28T13:27:06.222Z,8.40
2022-08-28T13:29:35.441Z,6.57
2022-08-28T13:32:06.930Z,8.38
2022-08-28T13:34:37.309Z,9.75
2022-08-28T13:37:14.656Z,7.80
2022-08-28T13:39:44.895Z,11.10
2022-08-28T13:42:17.016Z,8.77
2022-08-28T13:44:50.696Z,12.23
2022-08-28T13:47:19.225Z,9.23
2022-08-28T13:49:47.964Z,9.90
2022-08-28T13:52:16.867Z,7.35
2022-08-28T13:54:46.898Z,9.55
2022-08-28T13:57:15.839Z,6.72
2022-08-28T13:59:44.350Z,12.65
2022-08-28T14:02:33.116Z,14.00
2022-08-28T14:05:01.854Z,14.05
2022-08-28T14:07:31.731Z,42.00
2022-08-28T14:10:02.029Z,31.20
2022-08-28T14:12:33.365Z,32.65
2022-08-28T14:15:02.679Z,13.10
2022-08-28T14:17:33.021Z,18.83
2022-08-28T14:20:01.896Z,22.30
2022-08-28T14:22:32.473Z,10.32
2022-08-28T14:25:03.467Z,15.93
2022-08-28T14:27:32.085Z,5.70
2022-08-28T14:30:01.633Z,5.38
2022-08-28T14:32:32.594Z,9.35
2022-08-28T14:35:01.074Z,4.45
2022-08-28T14:37:30.064Z,7.68
2022-08-28T14:39:58.643Z,5.88
2022-08-28T14:42:28.635Z,9.30
2022-08-28T14:44:57.340Z,5.50
2022-08-28T14:47:25.817Z,4.13
2022-08-28T14:49:57.169Z,6.32
2022-08-28T14:52:26.547Z,5.38
2022-08-28T14:54:55.692Z,5.15
2022-08-28T14:57:24.752Z,5.00
2022-08-28T14:59:54.574Z,8.80
2022-08-28T15:02:23.040Z,6.25
2022-08-28T15:04:51.453Z,5.70
2022-08-28T15:07:21.351Z,7.78
2022-08-28T15:09:50.238Z,6.72
2022-08-28T15:12:19.924Z,7.22
2022-08-28T15:14:55.171Z,7.20
2022-08-28T15:17:33.937Z,7.25
2022-08-28T15:20:03.341Z,7.82
2022-08-28T15:22:31.863Z,6.50
2022-08-28T15:25:00.309Z,5.78
2022-08-28T15:27:28.774Z,6.07
2022-08-28T15:29:57.257Z,4.43
2022-08-28T15:32:27.612Z,4.95
2022-08-28T15:34:56.252Z,6.47
2022-08-28T15:37:24.744Z,7.63
2022-08-28T15:40:10.720Z,5.60
2022-08-28T15:42:39.231Z,4.88
2022-08-28T15:45:08.111Z,5.40
2022-08-28T15:47:38.977Z,6.95
2022-08-28T15:50:08.551Z,4.53
2022-08-28T15:52:40.128Z,4.40
2022-08-28T15:55:11.320Z,3.60
2022-08-28T15:57:39.882Z,4.25
2022-08-28T16:00:10.506Z,4.30
2022-08-28T16:02:41.485Z,4.53
2022-08-28T16:05:10.414Z,4.47
2022-08-28T16:07:39.184Z,5.00
2022-08-28T16:10:09.725Z,8.70
2022-08-28T16:12:41.256Z,6.25
2022-08-28T16:15:11.086Z,6.78
2022-08-28T16:17:41.275Z,8.13
2022-08-28T16:20:13.683Z,9.77
2022-08-28T16:22:42.848Z,8.98
2022-08-28T16:25:13.030Z,8.40
2022-08-28T16:27:41.546Z,6.03
2022-08-28T16:30:15.702Z,5.97
2022-08-28T16:32:47.192Z,6.95
2022-08-28T16:35:17.039Z,6.88
2022-08-28T16:37:45.960Z,7.43
2022-08-28T16:40:15.095Z,8.68
2022-08-28T16:42:51.851Z,9.13
2022-08-28T16:45:21.141Z,6.68
2022-08-28T16:47:51.484Z,6.35
2022-08-28T16:50:20.550Z,5.88
2022-08-28T16:52:49.272Z,6.63
2022-08-28T16:55:17.797Z,4.55
2022-08-28T16:57:46.251Z,7.63
2022-08-28T17:00:15.290Z,10.15
2022-08-28T17:02:44.781Z,9.48
2022-08-28T17:05:16.130Z,8.70
2022-08-28T17:07:45.054Z,5.60
2022-08-28T17:10:15.842Z,8.43
2022-08-28T17:12:44.857Z,7.70
2022-08-28T17:15:14.417Z,8.18
2022-08-28T17:17:43.320Z,8.93
2022-08-28T17:20:34.666Z,12.35
2022-08-28T17:23:02.795Z,9.57
2022-08-28T17:25:31.256Z,10.40
2022-08-28T17:27:59.830Z,10.80
2022-08-28T17:30:28.471Z,14.23
2022-08-28T17:32:57.416Z,14.40
2022-08-28T17:35:27.603Z,16.10
2022-08-28T17:37:56.089Z,17.73
2022-08-28T17:40:24.994Z,16.88
2022-08-28T17:42:54.302Z,17.38
2022-08-28T17:45:22.835Z,19.23
2022-08-28T17:47:52.808Z,20.30
2022-08-28T17:50:21.929Z,16.27
2022-08-28T17:52:51.831Z,19.00
2022-08-28T17:55:20.993Z,20.10
2022-08-28T17:57:49.587Z,19.30
2022-08-28T18:00:20.866Z,18.80
2022-08-28T18:02:52.333Z,18.13
2022-08-28T18:05:21.157Z,19.98
2022-08-28T18:07:51.095Z,20.98
2022-08-28T18:10:19.985Z,22.35
2022-08-28T18:12:49.034Z,20.40
2022-08-28T18:15:17.860Z,23.10
2022-08-28T18:17:50.539Z,22.83
2022-08-28T18:20:20.181Z,24.20
2022-08-28T18:22:49.197Z,23.67
2022-08-28T18:25:33.505Z,25.67
2022-08-28T18:28:02.595Z,27.48
2022-08-28T18:30:31.109Z,34.33
2022-08-28T18:32:59.730Z,30.05
2022-08-28T18:35:31.702Z,35.38
2022-08-28T18:38:01.717Z,34.38
2022-08-28T18:40:32.867Z,33.50
2022-08-28T18:43:01.926Z,30.80
2022-08-28T18:45:31.828Z,34.83
2022-08-28T18:48:01.441Z,32.60
2022-08-28T18:50:32.001Z,38.25
2022-08-28T18:53:01.341Z,35.08
2022-08-28T18:55:33.414Z,37.55
2022-08-28T18:58:02.976Z,38.38
2022-08-28T19:00:32.074Z,42.35
2022-08-28T19:03:01.053Z,42.95
2022-08-28T19:05:29.678Z,43.10
2022-08-28T19:07:58.881Z,44.00
2022-08-28T19:10:34.102Z,40.67
2022-08-28T19:13:05.596Z,39.90
2022-08-28T19:15:35.841Z,46.00
2022-08-28T19:18:05.723Z,44.92
2022-08-28T19:20:35.331Z,39.92
2022-08-28T19:23:03.877Z,35.33
2022-08-28T19:25:32.474Z,37.08
2022-08-28T19:28:02.242Z,42.55
2022-08-28T19:30:34.127Z,41.50
2022-08-28T19:33:05.247Z,44.75
2022-08-28T19:35:34.874Z,38.60
2022-08-28T19:38:03.841Z,37.85
2022-08-28T19:40:33.799Z,37.63
2022-08-28T19:43:02.574Z,32.90
2022-08-28T19:45:35.722Z,30.48
2022-08-28T19:48:05.002Z,34.95
2022-08-28T19:50:33.521Z,33.22
2022-08-28T19:53:02.092Z,30.95
2022-08-28T19:55:30.801Z,32.67
2022-08-28T19:57:59.441Z,30.27
2022-08-28T20:00:31.180Z,30.60
2022-08-28T20:03:01.295Z,31.48
2022-08-28T20:05:29.873Z,31.23
2022-08-28T20:07:58.587Z,28.60
2022-08-28T20:10:27.752Z,29.48
2022-08-28T20:12:56.532Z,33.17
2022-08-28T20:15:25.227Z,31.98
2022-08-28T20:17:53.753Z,32.47
2022-08-28T20:20:29.348Z,29.75
2022-08-28T20:22:58.378Z,32.17
2022-08-28T20:25:27.878Z,31.63
2022-08-28T20:28:01.438Z,32.92
2022-08-28T20:30:30.628Z,33.45
2022-08-28T20:33:01.067Z,34.40
2022-08-28T20:35:31.075Z,45.75
2022-08-28T20:37:59.721Z,41.92
2022-08-28T20:40:28.542Z,42.40
2022-08-28T20:42:57.185Z,38.40
2022-08-28T20:45:26.226Z,37.28
2022-08-28T20:47:54.918Z,37.80
2022-08-28T20:50:23.362Z,41.75
2022-08-28T20:52:53.122Z,55.05
2022-08-28T20:55:21.717Z,47.53
2022-08-28T20:57:50.281Z,51.03
2022-08-28T21:00:18.783Z,52.25
2022-08-28T21:02:47.358Z,45.20
2022-08-28T21:05:15.896Z,41.05
2022-08-28T21:07:44.488Z,41.72
2022-08-28T21:10:14.531Z,42.17
2022-08-28T21:12:43.127Z,40.55
2022-08-28T21:15:13.920Z,47.25
2022-08-28T21:17:42.988Z,51.22
2022-08-28T21:20:14.272Z,46.28
2022-08-28T21:22:43.320Z,45.60
2022-08-28T21:25:15.515Z,34.80
2022-08-28T21:27:45.133Z,30.67
2022-08-28T21:30:15.862Z,33.47
2022-08-28T21:32:44.393Z,30.63
2022-08-28T21:35:14.335Z,27.48
2022-08-28T21:37:43.303Z,30.90
2022-08-28T21:40:15.757Z,33.38
2022-08-28T21:42:44.492Z,28.75
2022-08-28T21:45:15.736Z,39.53
2022-08-28T21:47:44.471Z,37.58
2022-08-28T21:50:13.581Z,38.72
2022-08-28T21:52:42.084Z,32.35
2022-08-28T21:55:12.784Z,39.33
2022-08-28T21:57:43.422Z,34.30
2022-08-28T22:00:17.470Z,33.97
2022-08-28T22:02:47.146Z,32.75
2022-08-28T22:05:16.102Z,37.33
2022-08-28T22:07:45.165Z,36.53
2022-08-28T22:10:14.150Z,33.97
2022-08-28T22:12:43.983Z,36.88
2022-08-28T22:15:12.770Z,36.10
2022-08-28T22:17:41.246Z,30.20
2022-08-28T22:20:10.936Z,35.28
2022-08-28T22:22:56.708Z,34.63
2022-08-28T22:25:25.460Z,37.00
2022-08-28T22:27:55.389Z,35.60
2022-08-28T22:30:24.553Z,27.50
2022-08-28T22:32:53.988Z,24.77
2022-08-28T22:35:22.948Z,25.63
2022-08-28T22:37:51.524Z,29.67
2022-08-28T22:40:20.384Z,21.33
2022-08-28T22:42:50.549Z,19.13
2022-08-28T22:45:21.409Z,23.80
2022-08-28T22:47:51.084Z,20.95
2022-08-28T22:50:20.109Z,21.70
2022-08-28T22:52:49.656Z,17.52
2022-08-28T22:55:21.818Z,20.42
2022-08-28T22:57:50.443Z,20.20
2022-08-28T23:00:25.919Z,15.57
2022-08-28T23:02:55.950Z,18.20
2022-08-28T23:05:25.554Z,18.70
2022-08-28T23:07:54.434Z,24.30
2022-08-28T23:10:42.177Z,16.45
2022-08-28T23:13:14.260Z,15.63
2022-08-28T23:15:44.910Z,19.85
2022-08-28T23:18:13.525Z,19.80
2022-08-28T23:20:42.178Z,14.93
2022-08-28T23:23:11.276Z,16.42
2022-08-28T23:25:39.748Z,26.95
2022-08-28T23:28:08.392Z,22.55
2022-08-28T23:30:38.971Z,26.88
2022-08-28T23:33:08.938Z,23.02
2022-08-28T23:35:38.103Z,17.48
2022-08-28T23:38:06.936Z,24.70
2022-08-28T23:40:37.439Z,19.15
2022-08-28T23:43:06.086Z,24.92
2022-08-28T23:45:35.375Z,19.55
2022-08-28T23:48:04.338Z,20.30
2022-08-28T23:50:35.167Z,24.38
2022-08-28T23:53:05.807Z,23.30
2022-08-28T23:55:34.316Z,17.63
2022-08-28T23:58:05.098Z,18.88
